sensor_id;sensor_type;location;lat;lon;timestamp;temperature;humidity
77700;DHT22;66867;42.658;23.320;2023-07-28T00:00:00;19.6;56
77700;DHT22;66867;42.658;23.320;2023-07-28T00:01:00;19.6;56
77700;DHT22;66867;42.658;23.320;2023-07-28T00:02:00;19.6;56
77700;DHT22;66867;42.658;23.320;2023-07-28T00:03:00;19.6;56
77700;DHT22;66867;42.658;23.320;2023-07-28T00:04:00;19.6;56
77700;DHT22;66867;42.658;23.320;2023-07-28T00:05:00;19.6;57
77700;DHT22;66867;42.658;23.320;2023-07-28T00:06:00;19.5;57
77700;DHT22;66867;42.658;23.320;2023-07-28T00:07:00;19.5;57
77700;DHT22;66867;42.658;23.320;2023-07-28T00:08:00;19.5;57
77700;DHT22;66867;42.658;23.320;2023-07-28T00:09:00;19.5;57
77700;DHT22;66867;42.658;23.320;2023-07-28T00:10:00;19.4;57
77700;DHT22;66867;42.658;23.320;2023-07-28T00:11:00;19.4;57
77700;DHT22;66867;42.658;23.320;2023-07-28T00:12:00;19.4;57
77700;DHT22;66867;42.658;23.320;2023-07-28T00:13:00;19.3;57
77700;DHT22;66867;42.658;23.320;2023-07-28T00:14:00;19.3;58
77700;DHT22;66867;42.658;23.320;2023-07-28T00:15:00;19.3;57
77700;DHT22;66867;42.658;23.320;2023-07-28T00:16:00;19.3;58
77700;DHT22;66867;42.658;23.320;2023-07-28T00:17:00;19.2;58
77700;DHT22;66867;42.658;23.320;2023-07-28T00:18:00;19.3;58
77700;DHT22;66867;42.658;23.320;2023-07-28T00:19:00;19.2;58
77700;DHT22;66867;42.658;23.320;2023-07-28T00:20:00;19.2;58
77700;DHT22;66867;42.658;23.320;2023-07-28T00:21:00;19.2;58
77700;DHT22;66867;42.658;23.320;2023-07-28T00:22:00;19.2;58
77700;DHT22;66867;42.658;23.320;2023-07-28T00:23:00;19.2;58
77700;DHT22;66867;42.658;23.320;2023-07-28T00:24:00;19.2;58
77700;DHT22;66867;42.658;23.320;2023-07-28T00:25:00;19.1;58
77700;DHT22;66867;42.658;23.320;2023-07-28T00:26:00;19.1;58
77700;DHT22;66867;42.658;23.320;2023-07-28T00:27:00;19.1;58
77700;DHT22;66867;42.658;23.320;2023-07-28T00:28:00;19.1;58
77700;DHT22;66867;42.658;23.320;2023-07-28T00:29:00;19.1;58
77700;DHT22;66867;42.658;23.320;2023-07-28T00:30:00;19.1;58
77700;DHT22;66867;42.658;23.320;2023-07-28T00:31:00;19.1;58
77700;DHT22;66867;42.658;23.320;2023-07-28T00:32:00;19.0;58
77700;DHT22;66867;42.658;23.320;2023-07-28T00:33:00;19.0;58
77700;DHT22;66867;42.658;23.320;2023-07-28T00:34:01;19.0;58
77700;DHT22;66867;42.658;23.320;2023-07-28T00:35:00;19.0;58
77700;DHT22;66867;42.658;23.320;2023-07-28T00:36:00;19.0;58
77700;DHT22;66867;42.658;23.320;2023-07-28T00:37:00;18.9;59
77700;DHT22;66867;42.658;23.320;2023-07-28T00:38:00;19.0;59
77700;DHT22;66867;42.658;23.320;2023-07-28T00:39:00;19.0;59
77700;DHT22;66867;42.658;23.320;2023-07-28T00:40:00;18.9;59
77700;DHT22;66867;42.658;23.320;2023-07-28T00:41:00;18.9;59
77700;DHT22;66867;42.658;23.320;2023-07-28T00:42:00;18.9;59
77700;DHT22;66867;42.658;23.320;2023-07-28T00:43:00;18.9;59
77700;DHT22;66867;42.658;23.320;2023-07-28T00:44:00;18.9;59
77700;DHT22;66867;42.658;23.320;2023-07-28T00:45:00;18.8;59
77700;DHT22;66867;42.658;23.320;2023-07-28T00:46:00;18.8;59
77700;DHT22;66867;42.658;23.320;2023-07-28T00:47:00;18.8;59
77700;DHT22;66867;42.658;23.320;2023-07-28T00:48:00;18.8;59
77700;DHT22;66867;42.658;23.320;2023-07-28T00:49:00;18.8;59
77700;DHT22;66867;42.658;23.320;2023-07-28T00:50:00;18.8;59
77700;DHT22;66867;42.658;23.320;2023-07-28T00:51:00;18.7;59
77700;DHT22;66867;42.658;23.320;2023-07-28T00:52:00;18.7;59
77700;DHT22;66867;42.658;23.320;2023-07-28T00:53:00;18.6;59
77700;DHT22;66867;42.658;23.320;2023-07-28T00:54:00;18.6;59
77700;DHT22;66867;42.658;23.320;2023-07-28T00:55:00;18.6;59
77700;DHT22;66867;42.658;23.320;2023-07-28T00:56:01;18.6;59
77700;DHT22;66867;42.658;23.320;2023-07-28T00:57:02;18.6;60
77700;DHT22;66867;42.658;23.320;2023-07-28T00:58:00;18.6;60
77700;DHT22;66867;42.658;23.320;2023-07-28T00:59:00;18.5;60
77700;DHT22;66867;42.658;23.320;2023-07-28T01:00:00;18.6;60
77700;DHT22;66867;42.658;23.320;2023-07-28T01:01:00;18.6;60
77700;DHT22;66867;42.658;23.320;2023-07-28T01:02:00;18.6;60
77700;DHT22;66867;42.658;23.320;2023-07-28T01:03:00;18.6;59
77700;DHT22;66867;42.658;23.320;2023-07-28T01:04:00;18.5;59
77700;DHT22;66867;42.658;23.320;2023-07-28T01:05:00;18.6;59
77700;DHT22;66867;42.658;23.320;2023-07-28T01:07:04;18.6;59
77700;DHT22;66867;42.658;23.320;2023-07-28T01:08:02;18.5;59
77700;DHT22;66867;42.658;23.320;2023-07-28T01:10:17;18.5;59
77700;DHT22;66867;42.658;23.320;2023-07-28T01:11:00;18.5;60
77700;DHT22;66867;42.658;23.320;2023-07-28T01:12:00;18.4;60
77700;DHT22;66867;42.658;23.320;2023-07-28T01:13:00;18.3;60
77700;DHT22;66867;42.658;23.320;2023-07-28T01:14:00;18.3;60
77700;DHT22;66867;42.658;23.320;2023-07-28T01:15:00;18.3;60
77700;DHT22;66867;42.658;23.320;2023-07-28T01:16:00;18.3;60
77700;DHT22;66867;42.658;23.320;2023-07-28T01:17:00;18.3;60
77700;DHT22;66867;42.658;23.320;2023-07-28T01:18:00;18.3;60
77700;DHT22;66867;42.658;23.320;2023-07-28T01:19:00;18.3;60
77700;DHT22;66867;42.658;23.320;2023-07-28T01:20:00;18.3;60
77700;DHT22;66867;42.658;23.320;2023-07-28T01:21:01;18.3;60
77700;DHT22;66867;42.658;23.320;2023-07-28T01:22:09;18.3;60
77700;DHT22;66867;42.658;23.320;2023-07-28T01:24:19;18.2;60
77700;DHT22;66867;42.658;23.320;2023-07-28T01:26:03;18.2;60
77700;DHT22;66867;42.658;23.320;2023-07-28T01:27:00;18.2;60
77700;DHT22;66867;42.658;23.320;2023-07-28T01:28:00;18.2;60
77700;DHT22;66867;42.658;23.320;2023-07-28T01:29:00;18.2;60
77700;DHT22;66867;42.658;23.320;2023-07-28T01:30:00;18.2;60
77700;DHT22;66867;42.658;23.320;2023-07-28T01:31:02;18.2;60
77700;DHT22;66867;42.658;23.320;2023-07-28T01:32:00;18.1;60
77700;DHT22;66867;42.658;23.320;2023-07-28T01:33:00;18.1;60
77700;DHT22;66867;42.658;23.320;2023-07-28T01:34:00;18.1;60
77700;DHT22;66867;42.658;23.320;2023-07-28T01:35:00;18.1;60
77700;DHT22;66867;42.658;23.320;2023-07-28T01:36:00;18.1;60
77700;DHT22;66867;42.658;23.320;2023-07-28T01:37:00;18.1;60
77700;DHT22;66867;42.658;23.320;2023-07-28T01:38:00;18.0;60
77700;DHT22;66867;42.658;23.320;2023-07-28T01:39:00;18.1;60
77700;DHT22;66867;42.658;23.320;2023-07-28T01:40:00;18.0;60
77700;DHT22;66867;42.658;23.320;2023-07-28T01:41:00;18.0;60
77700;DHT22;66867;42.658;23.320;2023-07-28T01:42:00;18.0;61
77700;DHT22;66867;42.658;23.320;2023-07-28T01:43:00;18.0;61
77700;DHT22;66867;42.658;23.320;2023-07-28T01:44:00;18.0;61
77700;DHT22;66867;42.658;23.320;2023-07-28T01:45:00;18.0;61
77700;DHT22;66867;42.658;23.320;2023-07-28T01:46:00;17.9;61
77700;DHT22;66867;42.658;23.320;2023-07-28T01:47:00;17.9;61
77700;DHT22;66867;42.658;23.320;2023-07-28T01:48:00;18.0;61
77700;DHT22;66867;42.658;23.320;2023-07-28T01:49:00;17.9;61
77700;DHT22;66867;42.658;23.320;2023-07-28T01:50:00;17.9;61
77700;DHT22;66867;42.658;23.320;2023-07-28T01:51:00;17.9;61
77700;DHT22;66867;42.658;23.320;2023-07-28T01:52:00;17.9;61
77700;DHT22;66867;42.658;23.320;2023-07-28T01:53:00;17.9;61
77700;DHT22;66867;42.658;23.320;2023-07-28T01:54:00;17.8;61
77700;DHT22;66867;42.658;23.320;2023-07-28T01:55:00;17.8;61
77700;DHT22;66867;42.658;23.320;2023-07-28T01:56:00;17.8;61
77700;DHT22;66867;42.658;23.320;2023-07-28T01:57:00;17.8;61
77700;DHT22;66867;42.658;23.320;2023-07-28T01:58:01;17.8;61
77700;DHT22;66867;42.658;23.320;2023-07-28T01:59:00;17.8;61
77700;DHT22;66867;42.658;23.320;2023-07-28T02:00:00;17.8;61
77700;DHT22;66867;42.658;23.320;2023-07-28T02:01:00;17.7;61
77700;DHT22;66867;42.658;23.320;2023-07-28T02:02:00;17.7;61
77700;DHT22;66867;42.658;23.320;2023-07-28T02:03:00;17.7;61
77700;DHT22;66867;42.658;23.320;2023-07-28T02:04:00;17.8;61
77700;DHT22;66867;42.658;23.320;2023-07-28T02:05:00;17.8;61
77700;DHT22;66867;42.658;23.320;2023-07-28T02:06:00;17.8;62
77700;DHT22;66867;42.658;23.320;2023-07-28T02:07:00;17.7;62
77700;DHT22;66867;42.658;23.320;2023-07-28T02:08:00;17.7;62
77700;DHT22;66867;42.658;23.320;2023-07-28T02:09:00;17.6;62
77700;DHT22;66867;42.658;23.320;2023-07-28T02:10:00;17.6;62
77700;DHT22;66867;42.658;23.320;2023-07-28T02:11:00;17.6;62
77700;DHT22;66867;42.658;23.320;2023-07-28T02:12:00;17.6;62
77700;DHT22;66867;42.658;23.320;2023-07-28T02:13:00;17.5;62
77700;DHT22;66867;42.658;23.320;2023-07-28T02:14:00;17.5;62
77700;DHT22;66867;42.658;23.320;2023-07-28T02:15:00;17.5;62
77700;DHT22;66867;42.658;23.320;2023-07-28T02:16:00;17.5;62
77700;DHT22;66867;42.658;23.320;2023-07-28T02:17:00;17.6;62
77700;DHT22;66867;42.658;23.320;2023-07-28T02:18:00;17.6;62
77700;DHT22;66867;42.658;23.320;2023-07-28T02:19:00;17.5;63
77700;DHT22;66867;42.658;23.320;2023-07-28T02:20:00;17.5;63
77700;DHT22;66867;42.658;23.320;2023-07-28T02:21:00;17.5;63
77700;DHT22;66867;42.658;23.320;2023-07-28T02:22:00;17.5;63
77700;DHT22;66867;42.658;23.320;2023-07-28T02:23:00;17.5;63
77700;DHT22;66867;42.658;23.320;2023-07-28T02:24:00;17.5;63
77700;DHT22;66867;42.658;23.320;2023-07-28T02:25:00;17.5;63
77700;DHT22;66867;42.658;23.320;2023-07-28T02:26:00;17.6;62
77700;DHT22;66867;42.658;23.320;2023-07-28T02:27:00;17.6;63
77700;DHT22;66867;42.658;23.320;2023-07-28T02:28:00;17.6;63
77700;DHT22;66867;42.658;23.320;2023-07-28T02:29:00;17.6;63
77700;DHT22;66867;42.658;23.320;2023-07-28T02:30:00;17.6;63
77700;DHT22;66867;42.658;23.320;2023-07-28T02:31:00;17.6;63
77700;DHT22;66867;42.658;23.320;2023-07-28T02:32:00;17.5;63
77700;DHT22;66867;42.658;23.320;2023-07-28T02:33:00;17.5;64
77700;DHT22;66867;42.658;23.320;2023-07-28T02:34:00;17.5;64
77700;DHT22;66867;42.658;23.320;2023-07-28T02:35:00;17.5;64
77700;DHT22;66867;42.658;23.320;2023-07-28T02:36:00;17.5;64
77700;DHT22;66867;42.658;23.320;2023-07-28T02:37:00;17.5;63
77700;DHT22;66867;42.658;23.320;2023-07-28T02:38:00;17.5;62
77700;DHT22;66867;42.658;23.320;2023-07-28T02:39:00;17.4;62
77700;DHT22;66867;42.658;23.320;2023-07-28T02:40:00;17.4;62
77700;DHT22;66867;42.658;23.320;2023-07-28T02:41:00;17.4;62
77700;DHT22;66867;42.658;23.320;2023-07-28T02:42:00;17.4;62
77700;DHT22;66867;42.658;23.320;2023-07-28T02:43:00;17.4;62
77700;DHT22;66867;42.658;23.320;2023-07-28T02:44:00;17.4;62
77700;DHT22;66867;42.658;23.320;2023-07-28T02:45:00;17.3;63
77700;DHT22;66867;42.658;23.320;2023-07-28T02:46:00;17.3;63
77700;DHT22;66867;42.658;23.320;2023-07-28T02:47:00;17.3;63
77700;DHT22;66867;42.658;23.320;2023-07-28T02:48:00;17.4;63
77700;DHT22;66867;42.658;23.320;2023-07-28T02:49:00;17.4;62
77700;DHT22;66867;42.658;23.320;2023-07-28T02:50:00;17.4;62
77700;DHT22;66867;42.658;23.320;2023-07-28T02:51:00;17.3;63
77700;DHT22;66867;42.658;23.320;2023-07-28T02:52:00;17.3;63
77700;DHT22;66867;42.658;23.320;2023-07-28T02:53:00;17.3;63
77700;DHT22;66867;42.658;23.320;2023-07-28T02:54:00;17.3;62
77700;DHT22;66867;42.658;23.320;2023-07-28T02:55:00;17.3;63
77700;DHT22;66867;42.658;23.320;2023-07-28T02:56:00;17.3;63
77700;DHT22;66867;42.658;23.320;2023-07-28T02:57:00;17.2;63
77700;DHT22;66867;42.658;23.320;2023-07-28T02:58:00;17.2;63
77700;DHT22;66867;42.658;23.320;2023-07-28T02:59:00;17.2;63
77700;DHT22;66867;42.658;23.320;2023-07-28T03:00:00;17.2;63
77700;DHT22;66867;42.658;23.320;2023-07-28T03:01:00;17.2;63
77700;DHT22;66867;42.658;23.320;2023-07-28T03:02:00;17.2;63
77700;DHT22;66867;42.658;23.320;2023-07-28T03:03:00;17.2;63
77700;DHT22;66867;42.658;23.320;2023-07-28T03:04:00;17.2;63
77700;DHT22;66867;42.658;23.320;2023-07-28T03:05:00;17.2;63
77700;DHT22;66867;42.658;23.320;2023-07-28T03:06:00;17.2;63
77700;DHT22;66867;42.658;23.320;2023-07-28T03:07:00;17.2;63
77700;DHT22;66867;42.658;23.320;2023-07-28T03:08:00;17.2;63
77700;DHT22;66867;42.658;23.320;2023-07-28T03:09:00;17.2;63
77700;DHT22;66867;42.658;23.320;2023-07-28T03:10:00;17.2;63
77700;DHT22;66867;42.658;23.320;2023-07-28T03:11:00;17.2;63
77700;DHT22;66867;42.658;23.320;2023-07-28T03:12:00;17.2;64
77700;DHT22;66867;42.658;23.320;2023-07-28T03:13:00;17.1;64
77700;DHT22;66867;42.658;23.320;2023-07-28T03:14:00;17.1;64
77700;DHT22;66867;42.658;23.320;2023-07-28T03:15:00;17.0;65
77700;DHT22;66867;42.658;23.320;2023-07-28T03:16:00;17.0;65
77700;DHT22;66867;42.658;23.320;2023-07-28T03:17:00;17.0;65
77700;DHT22;66867;42.658;23.320;2023-07-28T03:18:00;16.9;65
77700;DHT22;66867;42.658;23.320;2023-07-28T03:19:00;16.9;65
77700;DHT22;66867;42.658;23.320;2023-07-28T03:20:00;16.9;65
77700;DHT22;66867;42.658;23.320;2023-07-28T03:21:00;16.9;65
77700;DHT22;66867;42.658;23.320;2023-07-28T03:22:00;16.9;65
77700;DHT22;66867;42.658;23.320;2023-07-28T03:23:00;16.9;64
77700;DHT22;66867;42.658;23.320;2023-07-28T03:24:00;16.9;64
77700;DHT22;66867;42.658;23.320;2023-07-28T03:25:00;16.9;64
77700;DHT22;66867;42.658;23.320;2023-07-28T03:26:00;17.0;64
77700;DHT22;66867;42.658;23.320;2023-07-28T03:27:00;17.0;64
77700;DHT22;66867;42.658;23.320;2023-07-28T03:28:00;16.9;64
77700;DHT22;66867;42.658;23.320;2023-07-28T03:29:00;16.9;64
77700;DHT22;66867;42.658;23.320;2023-07-28T03:30:00;16.9;64
77700;DHT22;66867;42.658;23.320;2023-07-28T03:31:00;16.9;64
77700;DHT22;66867;42.658;23.320;2023-07-28T03:32:00;16.9;64
77700;DHT22;66867;42.658;23.320;2023-07-28T03:33:00;16.9;64
77700;DHT22;66867;42.658;23.320;2023-07-28T03:34:00;16.9;63
77700;DHT22;66867;42.658;23.320;2023-07-28T03:35:00;16.9;63
77700;DHT22;66867;42.658;23.320;2023-07-28T03:36:00;16.9;63
77700;DHT22;66867;42.658;23.320;2023-07-28T03:37:00;16.9;63
77700;DHT22;66867;42.658;23.320;2023-07-28T03:38:00;16.9;63
77700;DHT22;66867;42.658;23.320;2023-07-28T03:39:00;16.8;63
77700;DHT22;66867;42.658;23.320;2023-07-28T03:40:00;16.8;63
77700;DHT22;66867;42.658;23.320;2023-07-28T03:41:00;16.8;64
77700;DHT22;66867;42.658;23.320;2023-07-28T03:42:00;16.8;64
77700;DHT22;66867;42.658;23.320;2023-07-28T03:43:00;16.8;64
77700;DHT22;66867;42.658;23.320;2023-07-28T03:44:00;16.8;64
77700;DHT22;66867;42.658;23.320;2023-07-28T03:45:00;16.8;64
77700;DHT22;66867;42.658;23.320;2023-07-28T03:46:00;16.8;64
77700;DHT22;66867;42.658;23.320;2023-07-28T03:47:00;16.8;64
77700;DHT22;66867;42.658;23.320;2023-07-28T03:48:00;16.8;64
77700;DHT22;66867;42.658;23.320;2023-07-28T03:49:00;16.8;65
77700;DHT22;66867;42.658;23.320;2023-07-28T03:50:00;16.8;65
77700;DHT22;66867;42.658;23.320;2023-07-28T03:51:00;16.8;64
77700;DHT22;66867;42.658;23.320;2023-07-28T03:52:00;16.8;64
77700;DHT22;66867;42.658;23.320;2023-07-28T03:53:00;16.8;64
77700;DHT22;66867;42.658;23.320;2023-07-28T03:54:00;16.8;64
77700;DHT22;66867;42.658;23.320;2023-07-28T03:55:00;16.8;64
77700;DHT22;66867;42.658;23.320;2023-07-28T03:56:00;16.8;64
77700;DHT22;66867;42.658;23.320;2023-07-28T03:57:00;16.8;64
77700;DHT22;66867;42.658;23.320;2023-07-28T03:58:00;16.9;64
77700;DHT22;66867;42.658;23.320;2023-07-28T03:59:00;16.9;64
77700;DHT22;66867;42.658;23.320;2023-07-28T04:00:00;17.0;64
77700;DHT22;66867;42.658;23.320;2023-07-28T04:01:00;17.0;63
77700;DHT22;66867;42.658;23.320;2023-07-28T04:02:00;17.0;63
77700;DHT22;66867;42.658;23.320;2023-07-28T04:03:00;17.1;63
77700;DHT22;66867;42.658;23.320;2023-07-28T04:04:00;17.1;63
77700;DHT22;66867;42.658;23.320;2023-07-28T04:05:00;17.1;63
77700;DHT22;66867;42.658;23.320;2023-07-28T04:06:00;17.1;63
77700;DHT22;66867;42.658;23.320;2023-07-28T04:07:00;17.1;63
77700;DHT22;66867;42.658;23.320;2023-07-28T04:08:00;17.1;63
77700;DHT22;66867;42.658;23.320;2023-07-28T04:09:00;17.1;62
77700;DHT22;66867;42.658;23.320;2023-07-28T04:10:00;17.1;63
77700;DHT22;66867;42.658;23.320;2023-07-28T04:11:00;17.1;63
77700;DHT22;66867;42.658;23.320;2023-07-28T04:12:00;17.1;63
77700;DHT22;66867;42.658;23.320;2023-07-28T04:13:00;17.1;63
77700;DHT22;66867;42.658;23.320;2023-07-28T04:14:00;17.1;63
77700;DHT22;66867;42.658;23.320;2023-07-28T04:15:00;17.1;64
77700;DHT22;66867;42.658;23.320;2023-07-28T04:16:00;17.1;64
77700;DHT22;66867;42.658;23.320;2023-07-28T04:17:00;17.1;64
77700;DHT22;66867;42.658;23.320;2023-07-28T04:18:00;17.1;64
77700;DHT22;66867;42.658;23.320;2023-07-28T04:19:00;17.2;63
77700;DHT22;66867;42.658;23.320;2023-07-28T04:20:00;17.2;63
77700;DHT22;66867;42.658;23.320;2023-07-28T04:21:00;17.2;63
77700;DHT22;66867;42.658;23.320;2023-07-28T04:22:00;17.2;63
77700;DHT22;66867;42.658;23.320;2023-07-28T04:23:00;17.3;63
77700;DHT22;66867;42.658;23.320;2023-07-28T04:24:00;17.3;63
77700;DHT22;66867;42.658;23.320;2023-07-28T04:25:00;17.3;63
77700;DHT22;66867;42.658;23.320;2023-07-28T04:26:00;17.3;63
77700;DHT22;66867;42.658;23.320;2023-07-28T04:27:00;17.3;63
77700;DHT22;66867;42.658;23.320;2023-07-28T04:28:00;17.3;63
77700;DHT22;66867;42.658;23.320;2023-07-28T04:29:00;17.3;63
77700;DHT22;66867;42.658;23.320;2023-07-28T04:30:00;17.3;63
77700;DHT22;66867;42.658;23.320;2023-07-28T04:31:00;17.3;63
77700;DHT22;66867;42.658;23.320;2023-07-28T04:32:00;17.3;63
77700;DHT22;66867;42.658;23.320;2023-07-28T04:33:00;17.3;63
77700;DHT22;66867;42.658;23.320;2023-07-28T04:34:01;17.3;63
77700;DHT22;66867;42.658;23.320;2023-07-28T04:35:00;17.3;63
77700;DHT22;66867;42.658;23.320;2023-07-28T04:36:03;17.4;63
77700;DHT22;66867;42.658;23.320;2023-07-28T04:37:00;17.4;63
77700;DHT22;66867;42.658;23.320;2023-07-28T04:38:00;17.4;63
77700;DHT22;66867;42.658;23.320;2023-07-28T04:39:00;17.4;63
77700;DHT22;66867;42.658;23.320;2023-07-28T04:40:00;17.4;63
77700;DHT22;66867;42.658;23.320;2023-07-28T04:41:00;17.4;63
77700;DHT22;66867;42.658;23.320;2023-07-28T04:42:00;17.4;63
77700;DHT22;66867;42.658;23.320;2023-07-28T04:43:00;17.4;63
77700;DHT22;66867;42.658;23.320;2023-07-28T04:44:00;17.4;63
77700;DHT22;66867;42.658;23.320;2023-07-28T04:45:00;17.4;63
77700;DHT22;66867;42.658;23.320;2023-07-28T04:46:00;17.4;63
77700;DHT22;66867;42.658;23.320;2023-07-28T04:47:00;17.5;63
77700;DHT22;66867;42.658;23.320;2023-07-28T04:48:00;17.5;63
77700;DHT22;66867;42.658;23.320;2023-07-28T04:49:00;17.5;63
77700;DHT22;66867;42.658;23.320;2023-07-28T04:50:00;17.5;63
77700;DHT22;66867;42.658;23.320;2023-07-28T04:51:00;17.5;63
77700;DHT22;66867;42.658;23.320;2023-07-28T04:52:00;17.5;63
77700;DHT22;66867;42.658;23.320;2023-07-28T04:53:00;17.5;63
77700;DHT22;66867;42.658;23.320;2023-07-28T04:54:00;17.5;63
77700;DHT22;66867;42.658;23.320;2023-07-28T04:55:00;17.5;63
77700;DHT22;66867;42.658;23.320;2023-07-28T04:56:00;17.5;63
77700;DHT22;66867;42.658;23.320;2023-07-28T04:57:00;17.5;63
77700;DHT22;66867;42.658;23.320;2023-07-28T04:58:00;17.6;64
77700;DHT22;66867;42.658;23.320;2023-07-28T04:59:00;17.6;64
77700;DHT22;66867;42.658;23.320;2023-07-28T05:00:00;17.6;64
77700;DHT22;66867;42.658;23.320;2023-07-28T05:01:00;17.6;63
77700;DHT22;66867;42.658;23.320;2023-07-28T05:02:00;17.7;63
77700;DHT22;66867;42.658;23.320;2023-07-28T05:03:00;17.7;64
77700;DHT22;66867;42.658;23.320;2023-07-28T05:04:00;17.6;63
77700;DHT22;66867;42.658;23.320;2023-07-28T05:05:00;17.7;63
77700;DHT22;66867;42.658;23.320;2023-07-28T05:06:00;17.7;63
77700;DHT22;66867;42.658;23.320;2023-07-28T05:07:00;17.7;63
77700;DHT22;66867;42.658;23.320;2023-07-28T05:08:00;17.7;63
77700;DHT22;66867;42.658;23.320;2023-07-28T05:09:00;17.7;63
77700;DHT22;66867;42.658;23.320;2023-07-28T05:10:00;17.7;64
77700;DHT22;66867;42.658;23.320;2023-07-28T05:11:00;17.8;63
77700;DHT22;66867;42.658;23.320;2023-07-28T05:12:00;17.7;63
77700;DHT22;66867;42.658;23.320;2023-07-28T05:13:00;17.7;63
77700;DHT22;66867;42.658;23.320;2023-07-28T05:14:00;17.7;64
77700;DHT22;66867;42.658;23.320;2023-07-28T05:15:00;17.8;64
77700;DHT22;66867;42.658;23.320;2023-07-28T05:16:00;17.9;64
77700;DHT22;66867;42.658;23.320;2023-07-28T05:17:00;17.9;64
77700;DHT22;66867;42.658;23.320;2023-07-28T05:18:00;18.0;63
77700;DHT22;66867;42.658;23.320;2023-07-28T05:19:00;17.9;63
77700;DHT22;66867;42.658;23.320;2023-07-28T05:20:00;18.0;64
77700;DHT22;66867;42.658;23.320;2023-07-28T05:21:00;18.0;64
77700;DHT22;66867;42.658;23.320;2023-07-28T05:22:00;18.0;64
77700;DHT22;66867;42.658;23.320;2023-07-28T05:23:00;18.0;64
77700;DHT22;66867;42.658;23.320;2023-07-28T05:24:00;18.0;64
77700;DHT22;66867;42.658;23.320;2023-07-28T05:25:00;18.0;64
77700;DHT22;66867;42.658;23.320;2023-07-28T05:26:00;18.0;64
77700;DHT22;66867;42.658;23.320;2023-07-28T05:27:00;18.1;64
77700;DHT22;66867;42.658;23.320;2023-07-28T05:28:00;18.1;64
77700;DHT22;66867;42.658;23.320;2023-07-28T05:29:00;18.1;64
77700;DHT22;66867;42.658;23.320;2023-07-28T05:30:00;18.1;64
77700;DHT22;66867;42.658;23.320;2023-07-28T05:31:04;18.1;64
77700;DHT22;66867;42.658;23.320;2023-07-28T05:32:00;18.2;64
77700;DHT22;66867;42.658;23.320;2023-07-28T05:33:00;18.2;64
77700;DHT22;66867;42.658;23.320;2023-07-28T05:34:00;18.2;64
77700;DHT22;66867;42.658;23.320;2023-07-28T05:35:00;18.3;64
77700;DHT22;66867;42.658;23.320;2023-07-28T05:36:01;18.3;64
77700;DHT22;66867;42.658;23.320;2023-07-28T05:37:00;18.4;64
77700;DHT22;66867;42.658;23.320;2023-07-28T05:38:00;18.4;64
77700;DHT22;66867;42.658;23.320;2023-07-28T05:39:00;18.4;63
77700;DHT22;66867;42.658;23.320;2023-07-28T05:40:00;18.4;63
77700;DHT22;66867;42.658;23.320;2023-07-28T05:41:01;18.5;63
77700;DHT22;66867;42.658;23.320;2023-07-28T05:42:00;18.5;63
77700;DHT22;66867;42.658;23.320;2023-07-28T05:43:00;18.6;65
77700;DHT22;66867;42.658;23.320;2023-07-28T05:44:00;18.8;68
77700;DHT22;66867;42.658;23.320;2023-07-28T05:45:00;19.0;64
77700;DHT22;66867;42.658;23.320;2023-07-28T05:46:00;19.0;65
77700;DHT22;66867;42.658;23.320;2023-07-28T05:47:00;19.1;66
77700;DHT22;66867;42.658;23.320;2023-07-28T05:48:00;19.3;64
77700;DHT22;66867;42.658;23.320;2023-07-28T05:49:00;19.2;62
77700;DHT22;66867;42.658;23.320;2023-07-28T05:50:00;19.2;64
77700;DHT22;66867;42.658;23.320;2023-07-28T05:51:00;19.3;64
77700;DHT22;66867;42.658;23.320;2023-07-28T05:52:00;19.4;63
77700;DHT22;66867;42.658;23.320;2023-07-28T05:53:00;19.4;62
77700;DHT22;66867;42.658;23.320;2023-07-28T05:54:00;19.4;62
77700;DHT22;66867;42.658;23.320;2023-07-28T05:55:00;19.4;62
77700;DHT22;66867;42.658;23.320;2023-07-28T05:56:00;19.5;64
77700;DHT22;66867;42.658;23.320;2023-07-28T05:57:00;19.7;63
77700;DHT22;66867;42.658;23.320;2023-07-28T05:58:00;19.7;62
77700;DHT22;66867;42.658;23.320;2023-07-28T05:59:00;19.7;62
77700;DHT22;66867;42.658;23.320;2023-07-28T06:00:00;19.8;63
77700;DHT22;66867;42.658;23.320;2023-07-28T06:01:00;19.8;62
77700;DHT22;66867;42.658;23.320;2023-07-28T06:02:00;19.9;61
77700;DHT22;66867;42.658;23.320;2023-07-28T06:03:00;19.9;60
77700;DHT22;66867;42.658;23.320;2023-07-28T06:04:00;19.9;58
77700;DHT22;66867;42.658;23.320;2023-07-28T06:05:00;19.8;58
77700;DHT22;66867;42.658;23.320;2023-07-28T06:06:00;19.8;60
77700;DHT22;66867;42.658;23.320;2023-07-28T06:07:00;19.9;59
77700;DHT22;66867;42.658;23.320;2023-07-28T06:08:00;19.9;60
77700;DHT22;66867;42.658;23.320;2023-07-28T06:09:00;19.9;59
77700;DHT22;66867;42.658;23.320;2023-07-28T06:10:00;20.0;60
77700;DHT22;66867;42.658;23.320;2023-07-28T06:11:00;20.0;60
77700;DHT22;66867;42.658;23.320;2023-07-28T06:12:00;20.1;60
77700;DHT22;66867;42.658;23.320;2023-07-28T06:13:00;20.2;60
77700;DHT22;66867;42.658;23.320;2023-07-28T06:14:00;20.3;59
77700;DHT22;66867;42.658;23.320;2023-07-28T06:15:00;20.3;59
77700;DHT22;66867;42.658;23.320;2023-07-28T06:16:00;20.3;59
77700;DHT22;66867;42.658;23.320;2023-07-28T06:17:00;20.3;59
77700;DHT22;66867;42.658;23.320;2023-07-28T06:18:00;20.3;59
77700;DHT22;66867;42.658;23.320;2023-07-28T06:19:00;20.3;59
77700;DHT22;66867;42.658;23.320;2023-07-28T06:20:00;20.3;58
77700;DHT22;66867;42.658;23.320;2023-07-28T06:21:00;20.3;59
77700;DHT22;66867;42.658;23.320;2023-07-28T06:22:00;20.3;58
77700;DHT22;66867;42.658;23.320;2023-07-28T06:23:00;20.4;60
77700;DHT22;66867;42.658;23.320;2023-07-28T06:24:00;20.4;59
77700;DHT22;66867;42.658;23.320;2023-07-28T06:25:00;20.6;58
77700;DHT22;66867;42.658;23.320;2023-07-28T06:26:00;20.5;58
77700;DHT22;66867;42.658;23.320;2023-07-28T06:27:00;20.6;59
77700;DHT22;66867;42.658;23.320;2023-07-28T06:28:00;20.6;59
77700;DHT22;66867;42.658;23.320;2023-07-28T06:29:00;20.7;58
77700;DHT22;66867;42.658;23.320;2023-07-28T06:30:00;20.7;59
77700;DHT22;66867;42.658;23.320;2023-07-28T06:31:00;20.9;60
77700;DHT22;66867;42.658;23.320;2023-07-28T06:32:00;21.0;60
77700;DHT22;66867;42.658;23.320;2023-07-28T06:33:00;21.0;58
77700;DHT22;66867;42.658;23.320;2023-07-28T06:34:00;21.0;58
77700;DHT22;66867;42.658;23.320;2023-07-28T06:35:00;21.0;58
77700;DHT22;66867;42.658;23.320;2023-07-28T06:36:00;21.1;56
77700;DHT22;66867;42.658;23.320;2023-07-28T06:37:00;21.1;56
77700;DHT22;66867;42.658;23.320;2023-07-28T06:38:00;21.1;58
77700;DHT22;66867;42.658;23.320;2023-07-28T06:39:00;21.2;56
77700;DHT22;66867;42.658;23.320;2023-07-28T06:40:00;21.2;58
77700;DHT22;66867;42.658;23.320;2023-07-28T06:41:00;21.3;57